sensor_id;sensor_type;location;lat;lon;timestamp;pressure;altitude;pressure_sealevel;temperature;humidity
25638;BME280;13496;51.040;13.680;2023-07-22T00:01:31;99393.84;;;26.18;39.13
25638;BME280;13496;51.040;13.680;2023-07-22T00:06:33;99402.06;;;26.16;38.75
25638;BME280;13496;51.040;13.680;2023-07-22T00:11:35;99397.03;;;26.15;38.75
25638;BME280;13496;51.040;13.680;2023-07-22T00:16:37;99400.16;;;26.12;38.90
25638;BME280;13496;51.040;13.680;2023-07-22T00:21:39;99402.81;;;26.12;38.73
25638;BME280;13496;51.040;13.680;2023-07-22T00:26:41;99398.00;;;26.09;38.72
25638;BME280;13496;51.040;13.680;2023-07-22T00:31:43;99412.88;;;26.10;38.90
25638;BME280;13496;51.040;13.680;2023-07-22T00:36:45;99414.44;;;26.05;38.88
25638;BME280;13496;51.040;13.680;2023-07-22T00:41:47;99416.28;;;26.05;39.01
25638;BME280;13496;51.040;13.680;2023-07-22T00:46:53;99418.94;;;26.05;38.82
25638;BME280;13496;51.040;13.680;2023-07-22T00:52:00;99418.38;;;26.03;38.94
25638;BME280;13496;51.040;13.680;2023-07-22T00:57:04;99424.28;;;26.05;38.93
25638;BME280;13496;51.040;13.680;2023-07-22T01:02:06;99419.44;;;26.02;38.80
25638;BME280;13496;51.040;13.680;2023-07-22T01:07:09;99422.09;;;26.02;38.71
25638;BME280;13496;51.040;13.680;2023-07-22T01:12:11;99422.56;;;25.99;38.75
25638;BME280;13496;51.040;13.680;2023-07-22T01:17:13;99417.53;;;25.97;38.79
25638;BME280;13496;51.040;13.680;2023-07-22T01:22:16;99423.09;;;25.96;38.74
25638;BME280;13496;51.040;13.680;2023-07-22T01:27:18;99419.88;;;25.94;39.10
25638;BME280;13496;51.040;13.680;2023-07-22T01:32:20;99413.16;;;25.91;39.01
25638;BME280;13496;51.040;13.680;2023-07-22T01:37:21;99415.28;;;25.89;38.75
25638;BME280;13496;51.040;13.680;2023-07-22T01:42:23;99414.72;;;25.87;38.88
25638;BME280;13496;51.040;13.680;2023-07-22T01:47:25;99421.88;;;25.87;38.94
25638;BME280;13496;51.040;13.680;2023-07-22T01:52:28;99425.34;;;25.87;38.74
25638;BME280;13496;51.040;13.680;2023-07-22T01:57:30;99431.13;;;25.84;38.85
25638;BME280;13496;51.040;13.680;2023-07-22T02:02:32;99434.53;;;25.79;38.70
25638;BME280;13496;51.040;13.680;2023-07-22T02:07:34;99443.88;;;25.82;38.64
25638;BME280;13496;51.040;13.680;2023-07-22T02:12:35;99439.06;;;25.79;38.60
25638;BME280;13496;51.040;13.680;2023-07-22T02:17:37;99446.41;;;25.77;38.75
25638;BME280;13496;51.040;13.680;2023-07-22T02:22:41;99451.19;;;25.75;38.58
25638;BME280;13496;51.040;13.680;2023-07-22T02:27:43;99454.06;;;25.73;38.69
25638;BME280;13496;51.040;13.680;2023-07-22T02:32:45;99452.16;;;25.69;38.99
25638;BME280;13496;51.040;13.680;2023-07-22T02:37:46;99459.91;;;25.70;39.13
25638;BME280;13496;51.040;13.680;2023-07-22T02:42:48;99459.09;;;25.70;38.88
25638;BME280;13496;51.040;13.680;2023-07-22T02:47:50;99469.72;;;25.70;38.74
25638;BME280;13496;51.040;13.680;2023-07-22T02:52:52;99481.84;;;25.66;38.63
25638;BME280;13496;51.040;13.680;2023-07-22T02:57:54;99478.31;;;25.60;38.86
25638;BME280;13496;51.040;13.680;2023-07-22T03:02:56;99478.06;;;25.62;38.99
25638;BME280;13496;51.040;13.680;2023-07-22T03:08:06;99480.72;;;25.62;38.65
25638;BME280;13496;51.040;13.680;2023-07-22T03:13:08;99486.31;;;25.60;38.83
25638;BME280;13496;51.040;13.680;2023-07-22T03:18:10;99486.53;;;25.58;38.47
25638;BME280;13496;51.040;13.680;2023-07-22T03:23:12;99494.50;;;25.58;38.57
25638;BME280;13496;51.040;13.680;2023-07-22T03:28:14;99497.16;;;25.58;38.75
25638;BME280;13496;51.040;13.680;2023-07-22T03:33:16;99496.59;;;25.56;38.69
25638;BME280;13496;51.040;13.680;2023-07-22T03:38:18;99506.44;;;25.56;38.57
25638;BME280;13496;51.040;13.680;2023-07-22T03:43:19;99511.97;;;25.54;38.85
25638;BME280;13496;51.040;13.680;2023-07-22T03:48:21;99510.38;;;25.53;38.81
25638;BME280;13496;51.040;13.680;2023-07-22T03:53:23;99507.97;;;25.52;38.50
25638;BME280;13496;51.040;13.680;2023-07-22T03:58:24;99506.91;;;25.53;38.86
25638;BME280;13496;51.040;13.680;2023-07-22T04:03:26;99506.31;;;25.51;39.10
25638;BME280;13496;51.040;13.680;2023-07-22T04:08:28;99500.78;;;25.52;38.63
25638;BME280;13496;51.040;13.680;2023-07-22T04:13:30;99510.13;;;25.55;38.74
25638;BME280;13496;51.040;13.680;2023-07-22T04:18:31;99505.53;;;25.50;38.72
25638;BME280;13496;51.040;13.680;2023-07-22T04:23:36;99509.56;;;25.53;38.37
25638;BME280;13496;51.040;13.680;2023-07-22T04:28:40;99513.03;;;25.53;38.63
25638;BME280;13496;51.040;13.680;2023-07-22T04:33:42;99535.66;;;25.56;38.56
25638;BME280;13496;51.040;13.680;2023-07-22T04:38:43;99540.97;;;25.56;38.57
25638;BME280;13496;51.040;13.680;2023-07-22T04:43:45;99541.78;;;25.56;38.41
25638;BME280;13496;51.040;13.680;2023-07-22T04:48:47;99547.09;;;25.56;38.71
25638;BME280;13496;51.040;13.680;2023-07-22T04:53:49;99548.13;;;25.55;38.55
25638;BME280;13496;51.040;13.680;2023-07-22T04:58:51;99551.59;;;25.56;38.63
25638;BME280;13496;51.040;13.680;2023-07-22T05:03:52;99560.63;;;25.55;38.79
25638;BME280;13496;51.040;13.680;2023-07-22T05:08:56;99561.41;;;25.55;38.50
25638;BME280;13496;51.040;13.680;2023-07-22T05:13:58;99570.41;;;25.54;38.37
25638;BME280;13496;51.040;13.680;2023-07-22T05:18:59;99565.09;;;25.54;38.28
25638;BME280;13496;51.040;13.680;2023-07-22T05:24:01;99583.94;;;25.53;38.62
25638;BME280;13496;51.040;13.680;2023-07-22T05:29:03;99584.75;;;25.53;39.02
25638;BME280;13496;51.040;13.680;2023-07-22T05:34:05;99580.50;;;25.52;38.60
25638;BME280;13496;51.040;13.680;2023-07-22T05:39:06;99587.66;;;25.52;38.70
25638;BME280;13496;51.040;13.680;2023-07-22T05:44:08;99582.56;;;25.50;38.56
25638;BME280;13496;51.040;13.680;2023-07-22T05:49:10;99583.38;;;25.51;38.53
25638;BME280;13496;51.040;13.680;2023-07-22T05:54:14;99587.66;;;25.52;38.52
25638;BME280;13496;51.040;13.680;2023-07-22T05:59:16;99588.47;;;25.52;38.77
25638;BME280;13496;51.040;13.680;2023-07-22T06:04:18;99604.41;;;25.52;39.02
25638;BME280;13496;51.040;13.680;2023-07-22T06:09:19;99613.97;;;25.53;38.59
25638;BME280;13496;51.040;13.680;2023-07-22T06:14:22;99615.50;;;25.49;38.55
25638;BME280;13496;51.040;13.680;2023-07-22T06:19:24;99624.28;;;25.50;38.36
25638;BME280;13496;51.040;13.680;2023-07-22T06:24:26;99621.88;;;25.48;38.31
25638;BME280;13496;51.040;13.680;2023-07-22T06:29:28;99618.53;;;25.41;38.29
25638;BME280;13496;51.040;13.680;2023-07-22T06:34:29;99627.06;;;25.43;38.46
25638;BME280;13496;51.040;13.680;2023-07-22T06:39:31;99631.22;;;25.39;38.37
25638;BME280;13496;51.040;13.680;2023-07-22T06:44:33;99626.50;;;25.41;38.37
25638;BME280;13496;51.040;13.680;2023-07-22T06:49:34;99622.25;;;25.40;38.41
25638;BME280;13496;51.040;13.680;2023-07-22T06:54:36;99629.16;;;25.41;38.08
25638;BME280;13496;51.040;13.680;2023-07-22T06:59:38;99634.94;;;25.38;38.01
25638;BME280;13496;51.040;13.680;2023-07-22T07:04:39;99631.47;;;25.38;37.84
25638;BME280;13496;51.040;13.680;2023-07-22T07:09:42;99642.09;;;25.38;37.94
25638;BME280;13496;51.040;13.680;2023-07-22T07:14:43;99640.25;;;25.38;37.81
25638;BME280;13496;51.040;13.680;2023-07-22T07:19:45;99642.31;;;25.36;37.78
25638;BME280;13496;51.040;13.680;2023-07-22T07:24:47;99655.38;;;25.38;37.73
25638;BME280;13496;51.040;13.680;2023-07-22T07:29:48;99660.69;;;25.38;37.54
25638;BME280;13496;51.040;13.680;2023-07-22T07:34:50;99658.25;;;25.36;37.65
25638;BME280;13496;51.040;13.680;2023-07-22T07:39:52;99668.88;;;25.36;37.68
25638;BME280;13496;51.040;13.680;2023-07-22T07:44:54;99681.16;;;25.37;37.76
25638;BME280;13496;51.040;13.680;2023-07-22T07:49:56;99677.44;;;25.38;37.43
25638;BME280;13496;51.040;13.680;2023-07-22T07:54:58;99689.69;;;25.39;37.28
25638;BME280;13496;51.040;13.680;2023-07-22T07:59:59;99688.88;;;25.39;37.38
25638;BME280;13496;51.040;13.680;2023-07-22T08:05:01;99682.75;;;25.38;37.70
25638;BME280;13496;51.040;13.680;2023-07-22T08:10:05;99685.16;;;25.40;37.39
25638;BME280;13496;51.040;13.680;2023-07-22T08:15:08;99703.75;;;25.40;37.28
25638;BME280;13496;51.040;13.680;2023-07-22T08:20:11;99691.31;;;25.40;37.38
25638;BME280;13496;51.040;13.680;2023-07-22T08:25:13;99698.78;;;25.43;37.17
25638;BME280;13496;51.040;13.680;2023-07-22T08:30:14;99703.53;;;25.41;36.93
25638;BME280;13496;51.040;13.680;2023-07-22T08:35:16;99697.75;;;25.44;36.89
25638;BME280;13496;51.040;13.680;2023-07-22T08:40:20;99694.53;;;25.42;36.82
25638;BME280;13496;51.040;13.680;2023-07-22T08:45:26;99692.91;;;25.41;37.05
25638;BME280;13496;51.040;13.680;2023-07-22T08:50:34;99700.63;;;25.43;36.77
25638;BME280;13496;51.040;13.680;2023-07-22T08:55:38;99712.31;;;25.42;36.93
25638;BME280;13496;51.040;13.680;2023-07-22T09:00:43;99709.41;;;25.43;36.58
25638;BME280;13496;51.040;13.680;2023-07-22T09:05:45;99705.72;;;25.44;36.88
25638;BME280;13496;51.040;13.680;2023-07-22T09:10:48;99710.00;;;25.45;36.85
25638;BME280;13496;51.040;13.680;2023-07-22T09:15:50;99705.50;;;25.46;36.89
25638;BME280;13496;51.040;13.680;2023-07-22T09:20:52;99703.28;;;25.43;36.29
25638;BME280;13496;51.040;13.680;2023-07-22T09:26:08;99701.44;;;25.43;36.65
25638;BME280;13496;51.040;13.680;2023-07-22T09:31:10;99694.28;;;25.44;36.46
25638;BME280;13496;51.040;13.680;2023-07-22T09:36:11;99687.94;;;25.45;36.84
25638;BME280;13496;51.040;13.680;2023-07-22T09:41:18;99682.63;;;25.45;36.47
25638;BME280;13496;51.040;13.680;2023-07-22T09:46:21;99678.13;;;25.45;36.53
25638;BME280;13496;51.040;13.680;2023-07-22T09:51:23;99681.56;;;25.46;36.51
25638;BME280;13496;51.040;13.680;2023-07-22T09:56:24;99669.91;;;25.47;36.32
25638;BME280;13496;51.040;13.680;2023-07-22T10:01:26;99679.72;;;25.46;35.99
25638;BME280;13496;51.040;13.680;2023-07-22T10:06:29;99682.97;;;25.48;36.25
25638;BME280;13496;51.040;13.680;2023-07-22T10:11:31;99684.56;;;25.49;36.34
25638;BME280;13496;51.040;13.680;2023-07-22T10:16:34;99685.63;;;25.48;36.32
25638;BME280;13496;51.040;13.680;2023-07-22T10:21:38;99683.53;;;25.50;36.19
25638;BME280;13496;51.040;13.680;2023-07-22T10:26:39;99671.88;;;25.51;36.44
25638;BME280;13496;51.040;13.680;2023-07-22T10:31:41;99675.09;;;25.53;36.48
25638;BME280;13496;51.040;13.680;2023-07-22T10:36:43;99670.34;;;25.55;36.49
25638;BME280;13496;51.040;13.680;2023-07-22T10:41:48;99671.97;;;25.56;36.32
25638;BME280;13496;51.040;13.680;2023-07-22T10:46:57;99667.19;;;25.58;35.83
25638;BME280;13496;51.040;13.680;2023-07-22T10:51:59;99677.38;;;25.62;36.14
25638;BME280;13496;51.040;13.680;2023-07-22T10:57:22;99670.78;;;25.64;35.82
25638;BME280;13496;51.040;13.680;2023-07-22T11:02:29;99671.91;;;25.68;35.85
25638;BME280;13496;51.040;13.680;2023-07-22T11:07:31;99663.72;;;25.70;35.94
25638;BME280;13496;51.040;13.680;2023-07-22T11:12:33;99672.59;;;25.75;36.10
25638;BME280;13496;51.040;13.680;2023-07-22T11:17:35;99671.31;;;25.78;35.95
25638;BME280;13496;51.040;13.680;2023-07-22T11:22:40;99661.25;;;25.80;35.30
25638;BME280;13496;51.040;13.680;2023-07-22T11:27:43;99664.03;;;25.85;35.52
25638;BME280;13496;51.040;13.680;2023-07-22T11:32:45;99651.94;;;25.94;35.88
25638;BME280;13496;51.040;13.680;2023-07-22T11:37:47;99643.50;;;25.97;35.56
25638;BME280;13496;51.040;13.680;2023-07-22T11:42:49;99636.25;;;25.93;35.91
25638;BME280;13496;51.040;13.680;2023-07-22T11:47:52;99639.47;;;25.95;35.62
25638;BME280;13496;51.040;13.680;2023-07-22T11:52:54;99624.31;;;25.95;35.67
25638;BME280;13496;51.040;13.680;2023-07-22T11:57:56;99625.47;;;25.99;35.92
25638;BME280;13496;51.040;13.680;2023-07-22T12:02:57;99618.69;;;26.09;35.72
25638;BME280;13496;51.040;13.680;2023-07-22T12:08:00;99623.53;;;26.12;35.64
25638;BME280;13496;51.040;13.680;2023-07-22T12:13:02;99627.59;;;26.14;35.94
25638;BME280;13496;51.040;13.680;2023-07-22T12:18:04;99619.41;;;26.21;35.98
25638;BME280;13496;51.040;13.680;2023-07-22T12:23:05;99622.19;;;26.26;35.90
25638;BME280;13496;51.040;13.680;2023-07-22T12:28:07;99626.44;;;26.27;35.70
25638;BME280;13496;51.040;13.680;2023-07-22T12:33:09;99620.16;;;26.33;35.43
25638;BME280;13496;51.040;13.680;2023-07-22T12:38:11;99618.63;;;26.37;35.55
25638;BME280;13496;51.040;13.680;2023-07-22T12:43:13;99607.25;;;26.42;35.82
25638;BME280;13496;51.040;13.680;2023-07-22T12:48:16;99613.13;;;26.44;35.43
25638;BME280;13496;51.040;13.680;2023-07-22T12:53:18;99605.97;;;26.44;35.51
25638;BME280;13496;51.040;13.680;2023-07-22T12:58:20;99607.13;;;26.48;35.48
25638;BME280;13496;51.040;13.680;2023-07-22T13:03:22;99592.75;;;26.49;34.90
25638;BME280;13496;51.040;13.680;2023-07-22T13:08:24;99597.59;;;26.52;34.83
25638;BME280;13496;51.040;13.680;2023-07-22T13:13:25;99601.53;;;26.33;35.19
25638;BME280;13496;51.040;13.680;2023-07-22T13:18:27;99597.72;;;26.29;35.67
25638;BME280;13496;51.040;13.680;2023-07-22T13:23:29;99588.72;;;26.30;35.26
25638;BME280;13496;51.040;13.680;2023-07-22T13:28:30;99582.91;;;26.33;35.32
25638;BME280;13496;51.040;13.680;2023-07-22T13:33:33;99583.25;;;26.37;35.45
25638;BME280;13496;51.040;13.680;2023-07-22T13:38:34;99571.28;;;26.39;35.15
25638;BME280;13496;51.040;13.680;2023-07-22T13:43:36;99568.16;;;26.42;35.04
25638;BME280;13496;51.040;13.680;2023-07-22T13:48:38;99571.94;;;26.46;35.25
25638;BME280;13496;51.040;13.680;2023-07-22T13:53:40;99569.28;;;26.46;35.17
25638;BME280;13496;51.040;13.680;2023-07-22T13:58:42;99565.88;;;26.51;35.48
25638;BME280;13496;51.040;13.680;2023-07-22T14:03:43;99571.53;;;26.54;35.21
25638;BME280;13496;51.040;13.680;2023-07-22T14:08:45;99568.88;;;26.54;34.93
25638;BME280;13496;51.040;13.680;2023-07-22T14:13:47;99569.44;;;26.57;34.79
25638;BME280;13496;51.040;13.680;2023-07-22T14:18:48;99562.31;;;26.62;35.61
25638;BME280;13496;51.040;13.680;2023-07-22T14:23:50;99550.97;;;26.67;35.34
25638;BME280;13496;51.040;13.680;2023-07-22T14:28:52;99547.72;;;26.65;35.05
25638;BME280;13496;51.040;13.680;2023-07-22T14:33:53;99546.66;;;26.66;35.07
25638;BME280;13496;51.040;13.680;2023-07-22T14:38:55;99538.19;;;26.69;35.27
25638;BME280;13496;51.040;13.680;2023-07-22T14:43:59;99533.97;;;26.73;35.37
25638;BME280;13496;51.040;13.680;2023-07-22T14:49:01;99541.72;;;26.74;35.49
25638;BME280;13496;51.040;13.680;2023-07-22T14:54:03;99537.22;;;26.75;35.00
25638;BME280;13496;51.040;13.680;2023-07-22T14:59:05;99536.41;;;26.74;35.24
25638;BME280;13496;51.040;13.680;2023-07-22T15:04:07;99540.41;;;26.77;35.06
25638;BME280;13496;51.040;13.680;2023-07-22T15:09:09;99542.03;;;26.78;34.94
25638;BME280;13496;51.040;13.680;2023-07-22T15:14:11;99530.34;;;26.79;35.11
25638;BME280;13496;51.040;13.680;2023-07-22T15:19:13;99526.63;;;26.80;35.01
25638;BME280;13496;51.040;13.680;2023-07-22T15:24:15;99542.34;;;26.82;34.99
25638;BME280;13496;51.040;13.680;2023-07-22T15:29:16;99537.56;;;26.84;35.16
25638;BME280;13496;51.040;13.680;2023-07-22T15:34:18;99524.53;;;26.82;34.75
25638;BME280;13496;51.040;13.680;2023-07-22T15:39:20;99529.59;;;26.84;34.75
25638;BME280;13496;51.040;13.680;2023-07-22T15:44:21;99518.72;;;26.85;34.90
25638;BME280;13496;51.040;13.680;2023-07-22T15:49:28;99523.78;;;26.87;34.59
25638;BME280;13496;51.040;13.680;2023-07-22T15:54:30;99525.63;;;26.86;34.79
25638;BME280;13496;51.040;13.680;2023-07-22T15:59:32;99532.56;;;26.87;35.26
25638;BME280;13496;51.040;13.680;2023-07-22T16:04:33;99522.72;;;26.88;35.23
25638;BME280;13496;51.040;13.680;2023-07-22T16:09:35;99514.22;;;26.91;35.12
25638;BME280;13496;51.040;13.680;2023-07-22T16:14:37;99514.00;;;26.92;35.27
25638;BME280;13496;51.040;13.680;2023-07-22T16:19:39;99505.50;;;26.95;35.26
25638;BME280;13496;51.040;13.680;2023-07-22T16:24:40;99504.94;;;26.93;35.83
25638;BME280;13496;51.040;13.680;2023-07-22T16:29:42;99509.53;;;26.98;35.63
25638;BME280;13496;51.040;13.680;2023-07-22T16:34:44;99507.66;;;26.98;36.00
25638;BME280;13496;51.040;13.680;2023-07-22T16:39:46;99503.69;;;27.01;35.48
25638;BME280;13496;51.040;13.680;2023-07-22T16:44:48;99492.78;;;27.02;35.43
25638;BME280;13496;51.040;13.680;2023-07-22T16:49:49;99490.91;;;27.03;35.29
25638;BME280;13496;51.040;13.680;2023-07-22T16:54:51;99491.75;;;27.03;35.34
25638;BME280;13496;51.040;13.680;2023-07-22T16:59:53;99491.75;;;27.03;35.46
25638;BME280;13496;51.040;13.680;2023-07-22T17:04:55;99491.22;;;27.07;35.73
25638;BME280;13496;51.040;13.680;2023-07-22T17:09:56;99487.53;;;27.08;35.42
25638;BME280;13496;51.040;13.680;2023-07-22T17:14:58;99484.88;;;27.08;35.47
25638;BME280;13496;51.040;13.680;2023-07-22T17:20:00;99487.53;;;27.08;35.58
25638;BME280;13496;51.040;13.680;2023-07-22T17:25:02;99489.13;;;27.09;35.51
25638;BME280;13496;51.040;13.680;2023-07-22T17:30:03;99489.13;;;27.09;35.48
25638;BME280;13496;51.040;13.680;2023-07-22T17:35:06;99482.75;;;27.10;35.69
25638;BME280;13496;51.040;13.680;2023-07-22T17:40:08;99471.28;;;27.09;35.65
25638;BME280;13496;51.040;13.680;2023-07-22T17:45:10;99477.41;;;27.10;35.80
25638;BME280;13496;51.040;13.680;2023-07-22T17:50:12;99467.03;;;27.08;35.97
25638;BME280;13496;51.040;13.680;2023-07-22T17:55:14;99464.59;;;27.07;36.17
25638;BME280;13496;51.040;13.680;2023-07-22T18:00:15;99464.59;;;27.07;35.74
25638;BME280;13496;51.040;13.680;2023-07-22T18:05:17;99462.19;;;27.05;35.84
25638;BME280;13496;51.040;13.680;2023-07-22T18:10:19;99459.78;;;27.03;35.96
25638;BME280;13496;51.040;13.680;2023-07-22T18:15:20;99458.72;;;27.05;35.68
25638;BME280;13496;51.040;13.680;2023-07-22T18:20:22;99462.47;;;27.03;35.98
25638;BME280;13496;51.040;13.680;2023-07-22T18:25:24;99468.81;;;27.02;35.97
25638;BME280;13496;51.040;13.680;2023-07-22T18:30:25;99460.28;;;27.00;36.23
25638;BME280;13496;51.040;13.680;2023-07-22T18:35:27;99472.81;;;27.00;35.84
25638;BME280;13496;51.040;13.680;2023-07-22T18:40:29;99474.09;;;26.97;36.18
25638;BME280;13496;51.040;13.680;2023-07-22T18:45:30;99469.28;;;26.94;36.06
25638;BME280;13496;51.040;13.680;2023-07-22T18:50:32;99474.06;;;26.92;36.05
25638;BME280;13496;51.040;13.680;2023-07-22T18:55:37;99468.16;;;26.90;35.93
25638;BME280;13496;51.040;13.680;2023-07-22T19:00:39;99472.91;;;26.88;36.13
25638;BME280;13496;51.040;13.680;2023-07-22T19:05:40;99473.44;;;26.85;36.02
25638;BME280;13496;51.040;13.680;2023-07-22T19:10:45;99473.13;;;26.82;36.01
25638;BME280;13496;51.040;13.680;2023-07-22T19:15:50;99478.69;;;26.80;36.13
25638;BME280;13496;51.040;13.680;2023-07-22T19:20:59;99485.09;;;26.79;35.92
25638;BME280;13496;51.040;13.680;2023-07-22T19:26:02;99489.84;;;26.77;35.85
25638;BME280;13496;51.040;13.680;2023-07-22T19:31:03;99483.16;;;26.74;35.78
25638;BME280;13496;51.040;13.680;2023-07-22T19:36:09;99476.75;;;26.70;36.26
25638;BME280;13496;51.040;13.680;2023-07-22T19:41:13;99477.78;;;26.69;36.25
25638;BME280;13496;51.040;13.680;2023-07-22T19:46:15;99475.38;;;26.68;35.94
25638;BME280;13496;51.040;13.680;2023-07-22T19:51:17;99481.19;;;26.65;36.05
25638;BME280;13496;51.040;13.680;2023-07-22T19:56:19;99474.81;;;26.66;35.96
25638;BME280;13496;51.040;13.680;2023-07-22T20:01:21;99474.00;;;26.65;36.35
25638;BME280;13496;51.040;13.680;2023-07-22T20:06:23;99471.09;;;26.67;36.31
25638;BME280;13496;51.040;13.680;2023-07-22T20:11:24;99468.69;;;26.65;35.97
25638;BME280;13496;51.040;13.680;2023-07-22T20:16:26;99468.94;;;26.64;36.20
25638;BME280;13496;51.040;13.680;2023-07-22T20:21:28;99473.47;;;26.63;36.46
25638;BME280;13496;51.040;13.680;2023-07-22T20:26:29;99479.00;;;26.62;36.39
25638;BME280;13496;51.040;13.680;2023-07-22T20:31:31;99480.88;;;26.61;36.46
25638;BME280;13496;51.040;13.680;2023-07-22T20:36:33;99482.72;;;26.61;36.31
25638;BME280;13496;51.040;13.680;2023-07-22T20:41:34;99481.38;;;26.58;36.17
25638;BME280;13496;51.040;13.680;2023-07-22T20:46:36;99475.25;;;26.58;36.63
25638;BME280;13496;51.040;13.680;2023-07-22T20:51:38;99475.25;;;26.58;36.16
25638;BME280;13496;51.040;13.680;2023-07-22T20:56:39;99478.97;;;26.57;36.33
25638;BME280;13496;51.040;13.680;2023-07-22T21:01:41;99481.63;;;26.57;36.28
25638;BME280;13496;51.040;13.680;2023-07-22T21:06:43;99474.69;;;26.56;36.41
25638;BME280;13496;51.040;13.680;2023-07-22T21:11:45;99473.31;;;26.53;36.29
25638;BME280;13496;51.040;13.680;2023-07-22T21:16:46;99476.78;;;26.53;36.34
25638;BME280;13496;51.040;13.680;2023-07-22T21:21:48;99468.28;;;26.51;36.53
25638;BME280;13496;51.040;13.680;2023-07-22T21:26:50;99470.94;;;26.51;36.64
25638;BME280;13496;51.040;13.680;2023-07-22T21:31:52;99475.41;;;26.51;36.38
25638;BME280;13496;51.040;13.680;2023-07-22T21:36:54;99471.97;;;26.50;36.67
25638;BME280;13496;51.040;13.680;2023-07-22T21:41:56;99470.34;;;26.49;36.88
25638;BME280;13496;51.040;13.680;2023-07-22T21:47:00;99467.13;;;26.47;36.86
25638;BME280;13496;51.040;13.680;2023-07-22T21:52:02;99473.50;;;26.46;36.51
25638;BME280;13496;51.040;13.680;2023-07-22T21:57:04;99471.88;;;26.45;36.88
25638;BME280;13496;51.040;13.680;2023-07-22T22:02:06;99486.00;;;26.46;36.94
25638;BME280;13496;51.040;13.680;2023-07-22T22:07:07;99481.94;;;26.43;36.83
25638;BME280;13496;51.040;13.680;2023-07-22T22:12:09;99473.41;;;26.41;36.77
25638;BME280;13496;51.040;13.680;2023-07-22T22:17:11;99464.06;;;26.39;37.01
25638;BME280;13496;51.040;13.680;2023-07-22T22:22:14;99470.19;;;26.39;36.79
25638;BME280;13496;51.040;13.680;2023-07-22T22:27:16;99478.75;;;26.41;36.82
25638;BME280;13496;51.040;13.680;2023-07-22T22:32:18;99474.72;;;26.39;37.03
25638;BME280;13496;51.040;13.680;2023-07-22T22:37:19;99473.91;;;26.38;37.01
25638;BME280;13496;51.040;13.680;2023-07-22T22:42:21;99473.34;;;26.36;36.89
25638;BME280;13496;51.040;13.680;2023-07-22T22:47:23;99474.41;;;26.35;37.01
25638;BME280;13496;51.040;13.680;2023-07-22T22:52:24;99478.13;;;26.34;37.03
25638;BME280;13496;51.040;13.680;2023-07-22T22:57:26;99474.66;;;26.34;37.14
25638;BME280;13496;51.040;13.680;2023-07-22T23:02:28;99477.53;;;26.32;36.74
25638;BME280;13496;51.040;13.680;2023-07-22T23:07:30;99473.28;;;26.31;37.13
25638;BME280;13496;51.040;13.680;2023-07-22T23:12:32;99470.06;;;26.29;37.01
25638;BME280;13496;51.040;13.680;2023-07-22T23:17:38;99470.31;;;26.27;37.03
25638;BME280;13496;51.040;13.680;2023-07-22T23:22:41;99459.13;;;26.25;37.00
25638;BME280;13496;51.040;13.680;2023-07-22T23:27:43;99456.69;;;26.24;37.30
25638;BME280;13496;51.040;13.680;2023-07-22T23:32:44;99451.38;;;26.24;37.46
25638;BME280;13496;51.040;13.680;2023-07-22T23:37:46;99452.19;;;26.24;37.12
25638;BME280;13496;51.040;13.680;2023-07-22T23:42:48;99451.06;;;26.20;37.47
25638;BME280;13496;51.040;13.680;2023-07-22T23:47:49;99446.53;;;26.21;37.10
25638;BME280;13496;51.040;13.680;2023-07-22T23:52:51;99444.13;;;26.19;37.40
25638;BME280;13496;51.040;13.680;2023-07-22T23:57:53;99434.56;;;26.18;37.67
